Time;durP1;ratioP1;P1;durP2;ratioP2;P2;SDS_P1;SDS_P2;PMS_P1;PMS_P2;Temp;Humidity;BMP_temperature;BMP_pressure;BME280_temperature;BME280_humidity;BME280_pressure;Samples;Min_cycle;Max_cycle;Signal;HPM_P1;HPM_P2
2022/07/19 00:00:46;;;;;;;4.70;2.45;;;17.10;73.80;;;;;;4989894;28;20177;-73
2022/07/19 00:03:12;;;;;;;5.30;2.17;;;17.10;73.80;;;;;;4991342;28;20172;-73
2022/07/19 00:05:38;;;;;;;4.85;1.98;;;17.10;73.70;;;;;;4989671;28;20192;-73
2022/07/19 00:08:04;;;;;;;3.72;2.53;;;17.00;74.30;;;;;;4990568;28;20272;-73
2022/07/19 00:10:30;;;;;;;3.55;2.10;;;17.00;74.60;;;;;;4989966;28;20187;-73
2022/07/19 00:12:55;;;;;;;2.53;1.85;;;16.90;74.80;;;;;;4990598;28;20184;-73
2022/07/19 00:15:21;;;;;;;1.98;1.70;;;16.90;75.00;;;;;;4991111;28;20734;-73
2022/07/19 00:17:48;;;;;;;5.38;2.17;;;16.90;75.00;;;;;;4990826;28;20557;-73
2022/07/19 00:20:16;;;;;;;5.28;2.08;;;16.90;75.00;;;;;;4991114;28;20228;-73
2022/07/19 00:22:42;;;;;;;7.72;2.47;;;16.90;75.30;;;;;;4991140;28;20172;-73
2022/07/19 00:25:08;;;;;;;7.20;2.22;;;16.90;75.60;;;;;;4989871;28;20192;-74
2022/07/19 00:27:34;;;;;;;3.10;1.92;;;16.80;76.80;;;;;;4989767;28;20655;-73
2022/07/19 00:30:00;;;;;;;5.70;2.30;;;16.70;76.50;;;;;;4991072;28;20258;-73
2022/07/19 00:32:26;;;;;;;6.82;2.00;;;16.60;76.80;;;;;;4989549;28;20279;-73
2022/07/19 00:34:51;;;;;;;3.50;1.90;;;16.60;77.10;;;;;;4989447;28;20196;-73
2022/07/19 00:37:17;;;;;;;2.45;1.85;;;16.60;77.20;;;;;;4990842;28;20181;-73
2022/07/19 00:39:42;;;;;;;2.63;1.95;;;16.60;77.30;;;;;;4990885;28;20173;-74
2022/07/19 00:42:08;;;;;;;3.90;2.00;;;16.60;78.00;;;;;;4990672;28;20180;-74
2022/07/19 00:44:34;;;;;;;3.80;2.08;;;16.50;78.50;;;;;;4991461;28;20611;-74
2022/07/19 00:47:00;;;;;;;7.53;2.10;;;16.40;78.90;;;;;;4991132;28;20249;-74
2022/07/19 00:49:25;;;;;;;7.35;2.17;;;16.50;78.80;;;;;;4990278;28;20272;-74
2022/07/19 00:51:53;;;;;;;5.85;1.90;;;16.50;78.90;;;;;;4990766;28;20204;-74
2022/07/19 00:54:19;;;;;;;3.13;1.92;;;16.50;78.80;;;;;;4990038;28;20665;-74
2022/07/19 00:56:48;;;;;;;3.92;2.40;;;16.50;79.10;;;;;;4989944;28;20196;-74
2022/07/19 00:59:14;;;;;;;9.57;2.15;;;16.50;79.70;;;;;;4991005;28;20253;-74
2022/07/19 01:01:40;;;;;;;5.82;2.25;;;16.40;80.20;;;;;;4990994;28;20326;-74
2022/07/19 01:04:06;;;;;;;3.22;2.17;;;16.30;80.80;;;;;;4992448;28;20176;-74
2022/07/19 01:06:32;;;;;;;3.72;2.20;;;16.20;81.60;;;;;;4994298;28;20331;-74
2022/07/19 01:08:58;;;;;;;5.78;2.42;;;16.00;82.60;;;;;;4993707;28;20177;-74
2022/07/19 01:11:23;;;;;;;3.85;2.33;;;16.00;83.10;;;;;;4992634;28;20694;-74
2022/07/19 01:13:49;;;;;;;2.92;1.95;;;16.00;83.40;;;;;;4992615;28;20203;-74
2022/07/19 01:16:15;;;;;;;2.30;2.10;;;15.90;83.90;;;;;;4993426;28;20292;-74
2022/07/19 01:18:41;;;;;;;4.22;2.30;;;16.00;84.00;;;;;;4992572;28;20262;-74
2022/07/19 01:21:09;;;;;;;3.03;2.30;;;15.80;85.00;;;;;;4992732;28;20306;-74
2022/07/19 01:23:34;;;;;;;8.25;2.20;;;15.60;86.50;;;;;;4992433;28;20187;-74
2022/07/19 01:26:00;;;;;;;5.40;2.13;;;15.60;87.50;;;;;;4992627;28;20208;-74
2022/07/19 01:28:25;;;;;;;7.70;2.30;;;15.70;87.60;;;;;;4992333;28;20257;-74
2022/07/19 01:30:51;;;;;;;4.03;2.30;;;15.70;87.40;;;;;;4992404;28;20187;-74
2022/07/19 01:33:17;;;;;;;2.25;2.00;;;15.70;87.60;;;;;;4992420;28;20188;-74
2022/07/19 01:35:42;;;;;;;4.57;2.28;;;15.50;88.10;;;;;;4992633;28;20283;-74
2022/07/19 01:38:08;;;;;;;4.63;2.28;;;15.50;88.60;;;;;;4993038;28;20220;-74
2022/07/19 01:40:34;;;;;;;5.97;2.38;;;15.50;88.60;;;;;;4992529;28;20222;-74
2022/07/19 01:42:59;;;;;;;4.75;2.38;;;15.50;88.70;;;;;;4992362;28;20184;-74
2022/07/19 01:45:26;;;;;;;2.88;2.05;;;15.40;89.90;;;;;;4991858;28;20751;-74
2022/07/19 01:47:51;;;;;;;9.73;2.33;;;15.40;89.10;;;;;;4991782;28;20260;-74
2022/07/19 01:50:17;;;;;;;4.60;2.28;;;15.50;89.70;;;;;;4992059;28;20180;-74
2022/07/19 01:52:44;;;;;;;3.25;2.20;;;15.40;89.40;;;;;;4993304;28;20263;-74
2022/07/19 01:55:10;;;;;;;5.07;2.45;;;15.40;89.80;;;;;;4991746;28;20682;-74
2022/07/19 01:57:36;;;;;;;3.90;2.13;;;15.30;90.80;;;;;;4992494;28;20257;-74
2022/07/19 02:00:03;;;;;;;2.58;2.35;;;15.20;91.00;;;;;;4991829;28;20180;-74
2022/07/19 02:02:29;;;;;;;3.70;2.45;;;15.00;91.50;;;;;;4992153;28;20270;-74
2022/07/19 02:04:54;;;;;;;4.93;2.22;;;15.00;91.90;;;;;;4992321;28;20667;-74
2022/07/19 02:07:20;;;;;;;2.85;2.20;;;14.90;92.40;;;;;;4992054;28;20203;-74
2022/07/19 02:09:45;;;;;;;3.35;2.33;;;15.00;92.50;;;;;;4991734;28;20177;-74
2022/07/19 02:12:11;;;;;;;3.70;2.20;;;14.90;92.50;;;;;;4992915;28;20176;-74
2022/07/19 02:14:37;;;;;;;2.90;2.30;;;14.80;92.90;;;;;;4991283;28;20185;-74
2022/07/19 02:17:03;;;;;;;4.00;2.15;;;14.90;92.90;;;;;;4992454;28;20172;-74
2022/07/19 02:19:28;;;;;;;5.05;2.30;;;14.90;93.10;;;;;;4991345;28;20303;-74
2022/07/19 02:21:54;;;;;;;3.47;2.60;;;15.00;93.00;;;;;;4991499;28;20176;-74
2022/07/19 02:24:19;;;;;;;7.57;2.40;;;15.00;93.20;;;;;;4991310;28;20276;-74
2022/07/19 02:26:45;;;;;;;3.80;2.30;;;15.00;93.50;;;;;;4992667;28;20247;-74
2022/07/19 02:29:11;;;;;;;3.25;2.17;;;14.90;94.10;;;;;;4991134;28;20196;-74
2022/07/19 02:31:36;;;;;;;7.13;2.58;;;14.90;94.10;;;;;;4992347;28;20259;-74
2022/07/19 02:34:02;;;;;;;2.97;2.55;;;14.90;94.40;;;;;;4992936;28;20176;-74
2022/07/19 02:36:28;;;;;;;6.13;2.63;;;14.80;94.70;;;;;;4991061;28;20223;-74
2022/07/19 02:38:53;;;;;;;3.97;2.17;;;14.70;95.00;;;;;;4991057;28;20686;-74
2022/07/19 02:41:19;;;;;;;3.33;2.33;;;14.70;95.20;;;;;;4991037;28;20229;-74
2022/07/19 02:43:45;;;;;;;4.82;2.13;;;14.50;95.60;;;;;;4992248;28;20191;-73
2022/07/19 02:46:10;;;;;;;2.80;2.20;;;14.50;96.10;;;;;;4991179;28;20203;-73
2022/07/19 02:48:36;;;;;;;4.03;2.67;;;14.40;96.10;;;;;;4991674;28;20278;-73
2022/07/19 02:51:02;;;;;;;2.25;2.10;;;14.50;96.50;;;;;;4991248;28;20187;-73
2022/07/19 02:53:27;;;;;;;6.43;2.45;;;14.50;96.60;;;;;;4991190;28;20209;-73
2022/07/19 02:55:53;;;;;;;3.53;2.10;;;14.40;96.70;;;;;;4991225;28;20571;-73
2022/07/19 02:58:19;;;;;;;2.88;2.53;;;14.30;97.10;;;;;;4991766;28;20287;-73
2022/07/19 03:00:45;;;;;;;3.50;2.38;;;14.20;97.50;;;;;;4991579;28;20285;-73
2022/07/19 03:05:55;;;;;;;4.60;2.40;;;14.10;98.00;;;;;;4992054;28;20210;-73
2022/07/19 03:08:21;;;;;;;3.95;2.45;;;14.10;98.50;;;;;;4990569;28;20187;-73
2022/07/19 03:10:46;;;;;;;3.50;2.50;;;14.10;98.60;;;;;;4990870;28;20184;-73
2022/07/19 03:13:12;;;;;;;7.32;2.40;;;14.10;98.60;;;;;;4990606;28;20596;-73
2022/07/19 03:15:38;;;;;;;6.63;2.67;;;14.10;99.40;;;;;;4990725;28;20200;-73
2022/07/19 03:18:04;;;;;;;4.60;2.85;;;14.10;99.90;;;;;;4991617;28;20201;-73
2022/07/19 03:20:30;;;;;;;7.35;2.92;;;14.20;99.90;;;;;;4990483;28;20198;-73
2022/07/19 03:22:55;;;;;;;4.32;2.80;;;14.20;99.90;;;;;;4990685;28;20189;-73
2022/07/19 03:25:21;;;;;;;5.30;2.70;;;14.20;99.90;;;;;;4990059;28;20694;-73
2022/07/19 03:27:48;;;;;;;9.73;3.15;;;14.20;99.90;;;;;;4990190;28;20211;-73
2022/07/19 03:30:13;;;;;;;7.43;2.95;;;14.30;99.90;;;;;;4990292;28;20661;-73
2022/07/19 03:32:39;;;;;;;5.07;2.55;;;14.40;99.90;;;;;;4990608;28;20172;-73
2022/07/19 03:35:06;;;;;;;4.72;2.35;;;14.30;99.90;;;;;;4990978;28;20207;-73
2022/07/19 03:37:31;;;;;;;6.38;2.50;;;14.50;99.90;;;;;;4990184;28;20285;-73
2022/07/19 03:39:57;;;;;;;10.10;2.83;;;14.50;99.50;;;;;;4990184;28;20212;-73
2022/07/19 03:42:22;;;;;;;5.15;2.67;;;14.50;99.40;;;;;;4990912;28;20522;-73
2022/07/19 03:44:48;;;;;;;6.82;2.50;;;14.40;99.20;;;;;;4990929;28;20192;-73
2022/07/19 03:47:13;;;;;;;7.95;2.70;;;14.30;99.40;;;;;;4990993;28;20674;-73
2022/07/19 03:49:39;;;;;;;7.18;2.30;;;14.30;99.60;;;;;;4990120;28;20179;-73
2022/07/19 03:52:05;;;;;;;7.65;2.33;;;14.40;99.40;;;;;;4992104;28;20592;-73
2022/07/19 03:54:30;;;;;;;8.25;2.38;;;14.40;99.30;;;;;;4991465;28;20179;-73
2022/07/19 03:56:56;;;;;;;3.72;2.47;;;14.40;99.60;;;;;;4990518;28;20188;-73
2022/07/19 03:59:22;;;;;;;6.65;2.58;;;14.40;99.40;;;;;;4989963;28;20200;-73
2022/07/19 04:01:49;;;;;;;3.53;2.30;;;14.30;99.90;;;;;;4989960;28;20204;-73
2022/07/19 04:04:15;;;;;;;5.22;1.80;;;14.40;99.70;;;;;;4991067;28;20643;-73
2022/07/19 04:06:40;;;;;;;4.00;2.40;;;14.50;99.70;;;;;;4989817;28;20192;-73
2022/07/19 04:09:06;;;;;;;4.90;2.47;;;14.50;99.80;;;;;;4989882;28;20179;-73
2022/07/19 04:11:31;;;;;;;6.70;2.53;;;14.40;99.90;;;;;;4990002;28;20200;-73
2022/07/19 04:13:57;;;;;;;6.25;2.60;;;14.50;99.90;;;;;;4991328;28;20180;-73
2022/07/19 04:16:23;;;;;;;4.60;2.50;;;14.50;99.90;;;;;;4989762;28;20196;-73
2022/07/19 04:18:48;;;;;;;27.80;4.22;;;14.50;99.90;;;;;;4990556;28;20204;-76
2022/07/19 04:21:14;;;;;;;11.07;2.63;;;14.50;99.90;;;;;;4990303;28;20267;-73
2022/07/19 04:23:39;;;;;;;10.13;2.60;;;14.50;99.90;;;;;;4991339;28;20550;-73
2022/07/19 04:26:05;;;;;;;6.55;2.70;;;14.40;99.90;;;;;;4992401;28;20192;-73
2022/07/19 04:28:31;;;;;;;4.50;2.72;;;14.40;99.90;;;;;;4991606;28;20196;-73
2022/07/19 04:30:57;;;;;;;8.57;2.78;;;14.30;99.90;;;;;;4990675;28;20220;-74
2022/07/19 04:33:22;;;;;;;5.30;2.22;;;14.40;99.90;;;;;;4989654;28;20180;-74
2022/07/19 04:35:48;;;;;;;7.10;3.17;;;14.50;99.90;;;;;;4990659;28;20211;-73
2022/07/19 04:38:21;;;;;;;7.00;2.85;;;14.60;99.90;;;;;;4992012;28;20212;-73
2022/07/19 04:40:47;;;;;;;2.78;2.53;;;14.70;99.90;;;;;;4994709;28;20207;-74
2022/07/19 04:43:13;;;;;;;4.95;2.83;;;14.70;99.90;;;;;;4993073;28;20212;-73
2022/07/19 04:45:44;;;;;;;8.27;2.80;;;14.90;99.90;;;;;;4992846;28;20222;-72
2022/07/19 04:48:13;;;;;;;5.30;2.40;;;15.10;99.90;;;;;;4993971;28;20185;-74
2022/07/19 04:50:39;;;;;;;6.15;2.40;;;15.20;99.90;;;;;;4993042;28;20185;-74
2022/07/19 04:53:04;;;;;;;8.43;2.83;;;15.30;99.90;;;;;;4993837;28;20180;-74
2022/07/19 04:55:30;;;;;;;4.90;3.08;;;15.50;99.90;;;;;;4992897;28;20208;-74
2022/07/19 04:58:12;;;;;;;10.52;2.45;;;15.50;99.90;;;;;;4994612;28;20405;-73
2022/07/19 05:00:37;;;;;;;6.40;3.05;;;15.50;99.90;;;;;;4992491;28;20275;-73
2022/07/19 05:03:05;;;;;;;7.75;2.97;;;15.60;99.90;;;;;;4992525;28;20263;-73
2022/07/19 05:05:30;;;;;;;12.18;3.50;;;15.70;99.70;;;;;;4992501;28;20208;-74
2022/07/19 05:07:56;;;;;;;11.30;3.15;;;15.80;99.50;;;;;;4993136;28;20705;-73
2022/07/19 05:10:22;;;;;;;7.30;3.00;;;16.00;99.20;;;;;;4993907;28;20541;-73
2022/07/19 05:12:47;;;;;;;8.40;3.20;;;16.20;98.80;;;;;;4993834;28;20546;-73
2022/07/19 05:15:52;;;;;;;9.27;3.20;;;16.40;98.30;;;;;;4992292;28;20290;-74
2022/07/19 05:18:17;;;;;;;11.60;3.25;;;16.40;98.00;;;;;;4993406;28;20204;-74
2022/07/19 05:20:43;;;;;;;7.47;2.90;;;16.60;97.40;;;;;;4993069;28;20269;-74
2022/07/19 05:23:08;;;;;;;10.25;3.20;;;16.70;97.00;;;;;;4993080;28;20180;-74
2022/07/19 05:25:34;;;;;;;7.70;2.88;;;16.70;97.10;;;;;;4993582;28;20204;-74
2022/07/19 05:28:00;;;;;;;10.98;3.40;;;16.70;97.50;;;;;;4992249;28;20207;-74
2022/07/19 05:30:25;;;;;;;9.80;3.08;;;16.90;97.20;;;;;;4992453;28;20180;-74
2022/07/19 05:32:51;;;;;;;8.82;3.20;;;17.00;96.90;;;;;;4993226;28;20196;-75
2022/07/19 05:35:16;;;;;;;7.35;3.05;;;17.10;96.40;;;;;;4991923;28;20247;-74
2022/07/19 05:37:42;;;;;;;11.02;3.20;;;17.30;96.30;;;;;;4991931;28;20372;-74
2022/07/19 05:40:08;;;;;;;7.40;2.90;;;17.40;97.60;;;;;;4991949;28;20172;-75
2022/07/19 05:42:34;;;;;;;17.27;3.50;;;17.40;98.60;;;;;;4993170;28;20260;-74
2022/07/19 05:44:59;;;;;;;9.68;3.22;;;17.60;98.20;;;;;;4992083;28;20288;-75
2022/07/19 05:47:25;;;;;;;7.93;3.08;;;17.60;97.30;;;;;;4992243;28;20172;-74
2022/07/19 05:49:50;;;;;;;12.85;3.20;;;17.80;96.70;;;;;;4992203;28;20202;-74
2022/07/19 05:52:16;;;;;;;4.72;2.78;;;17.80;96.20;;;;;;4992067;28;20554;-74
2022/07/19 05:54:42;;;;;;;9.45;3.28;;;17.90;95.90;;;;;;4993187;28;20192;-74
2022/07/19 05:57:08;;;;;;;6.53;3.17;;;18.00;95.90;;;;;;4992030;28;20238;-74
2022/07/19 05:59:35;;;;;;;13.50;3.50;;;18.10;95.60;;;;;;4992020;28;20211;-74
2022/07/19 06:02:01;;;;;;;12.23;3.08;;;18.30;95.40;;;;;;4991666;28;20203;-74
2022/07/19 06:04:27;;;;;;;6.22;3.15;;;18.40;95.20;;;;;;4991811;28;20214;-74
2022/07/19 06:06:53;;;;;;;17.17;4.13;;;18.60;95.20;;;;;;4991629;28;20176;-74
2022/07/19 06:09:18;;;;;;;12.15;3.67;;;18.80;95.20;;;;;;4992968;28;20544;-74
2022/07/19 06:11:44;;;;;;;18.15;3.60;;;18.90;95.00;;;;;;4993242;28;20192;-74
2022/07/19 06:14:10;;;;;;;18.70;3.35;;;19.10;94.60;;;;;;4992649;28;20180;-74
2022/07/19 06:16:38;;;;;;;6.22;3.20;;;19.30;94.10;;;;;;4991448;28;20236;-74
2022/07/19 06:19:04;;;;;;;12.60;3.50;;;19.50;93.40;;;;;;4991368;28;20204;-74
2022/07/19 06:21:29;;;;;;;15.38;3.65;;;19.70;93.20;;;;;;4992183;28;20184;-74
2022/07/19 06:23:56;;;;;;;11.10;3.50;;;19.80;93.20;;;;;;4992524;28;20179;-74
2022/07/19 06:26:22;;;;;;;10.80;3.25;;;20.00;92.50;;;;;;4991452;28;20230;-74
2022/07/19 06:28:48;;;;;;;14.20;3.70;;;20.30;92.10;;;;;;4991168;28;20235;-74
2022/07/19 06:31:16;;;;;;;7.35;3.03;;;20.50;91.40;;;;;;4991211;28;20246;-74
2022/07/19 06:33:43;;;;;;;7.28;2.85;;;20.80;90.90;;;;;;4992626;28;20185;-74
2022/07/19 06:36:09;;;;;;;12.50;3.22;;;21.10;89.50;;;;;;4991146;28;20200;-74
2022/07/19 06:38:35;;;;;;;9.52;3.03;;;21.70;86.10;;;;;;4992247;28;20291;-74
2022/07/19 06:41:01;;;;;;;7.15;3.10;;;22.60;82.70;;;;;;4991962;28;20577;-74
2022/07/19 06:43:26;;;;;;;5.32;3.15;;;23.50;79.10;;;;;;4991030;28;20645;-74
2022/07/19 06:45:52;;;;;;;4.90;2.95;;;24.30;71.50;;;;;;4990893;28;20211;-74
2022/07/19 06:48:18;;;;;;;6.28;2.78;;;25.00;64.70;;;;;;4992185;28;20172;-74
2022/07/19 06:50:43;;;;;;;4.60;2.90;;;25.50;63.60;;;;;;4990956;28;20176;-74
2022/07/19 06:53:09;;;;;;;5.47;2.85;;;25.90;61.50;;;;;;4992582;28;20200;-74
2022/07/19 06:55:36;;;;;;;3.97;3.00;;;26.20;60.90;;;;;;4990716;28;20577;-75
2022/07/19 06:58:01;;;;;;;3.95;3.05;;;26.10;59.00;;;;;;4990782;28;20239;-74
2022/07/19 07:00:27;;;;;;;7.53;2.95;;;25.90;59.90;;;;;;4991934;28;20207;-74
2022/07/19 07:02:53;;;;;;;10.10;3.10;;;25.40;57.60;;;;;;4991964;28;20172;-74
2022/07/19 07:05:19;;;;;;;5.40;2.53;;;25.10;58.90;;;;;;4990980;28;20234;-74
2022/07/19 07:07:44;;;;;;;7.38;2.90;;;24.70;57.80;;;;;;4990610;28;20655;-74
2022/07/19 07:10:10;;;;;;;4.57;2.70;;;24.40;59.50;;;;;;4992089;28;20191;-74
2022/07/19 07:12:37;;;;;;;4.53;2.85;;;24.10;59.60;;;;;;4991405;28;20188;-74
2022/07/19 07:15:03;;;;;;;3.30;2.42;;;24.10;61.20;;;;;;4991927;28;20744;-74
2022/07/19 07:17:29;;;;;;;7.43;3.00;;;24.00;60.60;;;;;;4990330;28;20184;-74
2022/07/19 07:19:54;;;;;;;8.90;3.10;;;23.90;61.20;;;;;;4990549;28;20187;-74
2022/07/19 07:22:20;;;;;;;7.70;2.80;;;23.90;59.50;;;;;;4990434;28;20188;-74
2022/07/19 07:24:45;;;;;;;6.03;2.50;;;24.00;60.10;;;;;;4991338;28;20199;-74
2022/07/19 07:27:11;;;;;;;6.50;2.60;;;24.00;59.40;;;;;;4990824;28;20738;-74
2022/07/19 07:29:37;;;;;;;3.53;2.53;;;24.10;59.60;;;;;;4991825;28;20542;-74
2022/07/19 07:32:04;;;;;;;8.65;2.42;;;24.20;59.10;;;;;;4990629;28;20261;-74
2022/07/19 07:34:29;;;;;;;3.30;2.67;;;24.30;59.20;;;;;;4991074;28;20216;-74
2022/07/19 07:36:55;;;;;;;5.53;2.50;;;24.30;58.50;;;;;;4991450;28;20176;-74
2022/07/19 07:39:20;;;;;;;8.30;2.80;;;24.50;58.30;;;;;;4991262;28;20208;-74
2022/07/19 07:41:46;;;;;;;5.38;2.72;;;24.60;57.90;;;;;;4991671;28;20176;-74
2022/07/19 07:44:11;;;;;;;8.85;2.95;;;24.70;57.60;;;;;;4991363;28;20176;-74
2022/07/19 07:46:37;;;;;;;4.63;2.65;;;24.70;57.50;;;;;;4991480;28;20196;-75
2022/07/19 07:49:03;;;;;;;6.10;2.90;;;24.90;57.30;;;;;;4990965;28;20208;-74
2022/07/19 07:51:29;;;;;;;4.82;2.70;;;24.90;56.70;;;;;;4990036;28;20180;-74
2022/07/19 07:53:54;;;;;;;9.18;2.58;;;24.90;55.80;;;;;;4990095;28;20191;-74
2022/07/19 07:56:20;;;;;;;5.30;2.70;;;25.00;56.20;;;;;;4989934;28;20204;-74
2022/07/19 07:58:46;;;;;;;7.78;2.58;;;25.30;57.10;;;;;;4989867;28;20200;-74
2022/07/19 08:01:11;;;;;;;5.93;2.63;;;25.50;56.10;;;;;;4989980;28;20644;-74
2022/07/19 08:03:37;;;;;;;3.05;2.63;;;25.60;55.60;;;;;;4990038;28;20173;-74
2022/07/19 08:06:03;;;;;;;5.60;2.58;;;25.70;55.60;;;;;;4989796;28;20210;-75
2022/07/19 08:08:29;;;;;;;8.57;2.95;;;25.70;54.60;;;;;;4989785;28;20329;-74
2022/07/19 08:10:55;;;;;;;4.60;2.60;;;25.80;55.30;;;;;;4991331;28;20206;-74
2022/07/19 08:13:21;;;;;;;3.35;2.70;;;25.90;55.30;;;;;;4992542;28;20654;-74
2022/07/19 08:15:47;;;;;;;8.55;2.80;;;26.00;54.90;;;;;;4993702;28;20672;-75
2022/07/19 08:18:13;;;;;;;5.28;2.90;;;26.10;55.20;;;;;;4995178;28;20231;-74
2022/07/19 08:20:39;;;;;;;7.05;2.50;;;26.20;55.00;;;;;;4993256;28;20183;-74
2022/07/19 08:23:04;;;;;;;4.90;2.45;;;26.40;54.20;;;;;;4994017;28;20198;-74
2022/07/19 08:25:32;;;;;;;6.00;2.67;;;26.50;53.70;;;;;;4993025;28;20682;-75
2022/07/19 08:27:58;;;;;;;7.88;2.60;;;26.60;52.60;;;;;;4993098;28;20203;-75
2022/07/19 08:30:23;;;;;;;8.93;2.70;;;26.70;52.70;;;;;;4993027;28;20316;-74
2022/07/19 08:32:49;;;;;;;6.75;2.85;;;26.70;52.60;;;;;;4992962;28;20215;-74
2022/07/19 08:35:15;;;;;;;3.78;2.75;;;26.80;53.20;;;;;;4992906;28;20238;-74
2022/07/19 08:37:40;;;;;;;5.18;2.60;;;26.90;52.70;;;;;;4993238;28;20188;-74
2022/07/19 08:40:07;;;;;;;6.88;2.63;;;27.00;52.20;;;;;;4992984;28;20568;-74
2022/07/19 08:42:33;;;;;;;8.52;2.75;;;27.00;50.50;;;;;;4992980;28;20317;-74
2022/07/19 08:45:02;;;;;;;4.55;2.53;;;27.10;50.40;;;;;;4993366;28;20234;-74
2022/07/19 08:47:29;;;;;;;7.20;2.53;;;27.10;50.10;;;;;;4994293;28;20172;-74
2022/07/19 08:49:57;;;;;;;7.75;2.55;;;27.20;50.00;;;;;;4992963;28;20191;-74
2022/07/19 08:52:24;;;;;;;4.20;2.50;;;27.40;50.90;;;;;;4992990;28;20180;-74
2022/07/19 08:54:49;;;;;;;4.10;2.45;;;27.50;49.30;;;;;;4992756;28;20204;-74
2022/07/19 08:59:59;;;;;;;8.52;2.60;;;27.70;49.40;;;;;;4994353;28;20175;-74
2022/07/19 09:02:25;;;;;;;4.18;2.40;;;27.80;50.10;;;;;;4992581;28;20172;-74
2022/07/19 09:05:10;;;;;;;4.45;2.50;;;27.90;49.00;;;;;;4992381;28;20200;-74
2022/07/19 09:07:38;;;;;;;3.25;2.22;;;28.00;49.20;;;;;;4992515;28;20302;-74
2022/07/19 09:10:18;;;;;;;4.32;2.42;;;28.10;48.80;;;;;;4992846;28;20589;-74
2022/07/19 09:13:08;;;;;;;4.68;2.40;;;28.20;47.90;;;;;;4992761;28;20183;-75
2022/07/19 09:15:43;;;;;;;14.90;2.90;;;28.20;47.50;;;;;;4992781;28;20213;-75
2022/07/19 09:18:17;;;;;;;9.60;2.67;;;28.30;47.30;;;;;;4992334;28;20203;-75
2022/07/19 09:20:44;;;;;;;6.47;2.53;;;28.40;46.40;;;;;;4993162;28;20168;-75
2022/07/19 09:23:10;;;;;;;5.72;2.45;;;28.40;45.80;;;;;;4992295;28;20172;-75
2022/07/19 09:25:40;;;;;;;5.72;2.30;;;28.50;45.40;;;;;;4992028;28;20283;-75
2022/07/19 09:28:06;;;;;;;8.05;2.40;;;28.60;46.70;;;;;;4992642;28;20200;-75
2022/07/19 09:30:37;;;;;;;6.25;2.35;;;28.70;46.60;;;;;;4992424;28;20195;-75
2022/07/19 09:33:19;;;;;;;6.68;2.28;;;28.80;45.20;;;;;;4992134;28;20164;-75
2022/07/19 09:35:53;;;;;;;5.70;2.50;;;28.90;43.70;;;;;;4992320;28;20199;-75
2022/07/19 09:38:31;;;;;;;6.55;2.35;;;29.00;44.10;;;;;;4991963;28;20290;-75
2022/07/19 09:41:18;;;;;;;6.57;2.70;;;29.00;43.50;;;;;;4991938;28;20179;-75
2022/07/19 09:43:49;;;;;;;15.30;2.85;;;29.20;44.00;;;;;;4991882;28;20184;-75
2022/07/19 09:46:34;;;;;;;5.32;2.10;;;29.30;44.20;;;;;;4993278;28;20225;-75
2022/07/19 09:49:05;;;;;;;6.15;2.53;;;29.40;43.90;;;;;;4992186;28;20179;-75
2022/07/19 09:51:36;;;;;;;11.05;2.35;;;29.70;44.50;;;;;;4991794;28;20690;-75
2022/07/19 09:54:03;;;;;;;7.05;2.33;;;29.80;41.40;;;;;;4992122;28;20188;-75
2022/07/19 09:56:30;;;;;;;7.55;2.58;;;29.90;42.50;;;;;;4991664;28;20203;-75
2022/07/19 09:58:58;;;;;;;11.38;2.33;;;29.90;42.90;;;;;;4993008;28;20282;-75
2022/07/19 10:01:24;;;;;;;11.20;2.38;;;29.90;42.10;;;;;;4992511;28;20176;-75
2022/07/19 10:03:54;;;;;;;4.43;2.35;;;29.90;40.30;;;;;;4991630;28;20183;-75
2022/07/19 10:06:20;;;;;;;5.97;2.00;;;30.00;40.70;;;;;;4991893;28;20574;-75
2022/07/19 10:08:46;;;;;;;5.90;2.40;;;30.00;41.20;;;;;;4993048;28;20658;-75
2022/07/19 10:11:13;;;;;;;3.65;2.20;;;30.10;42.20;;;;;;4991541;28;20201;-74
2022/07/19 10:13:39;;;;;;;4.00;2.00;;;30.10;40.00;;;;;;4992424;28;20178;-75
2022/07/19 10:16:12;;;;;;;4.78;2.40;;;30.20;40.70;;;;;;4992539;28;20720;-75
2022/07/19 10:18:48;;;;;;;3.53;2.47;;;30.20;40.60;;;;;;4992515;28;20218;-75
2022/07/19 10:21:14;;;;;;;3.97;2.20;;;30.40;39.60;;;;;;4992275;28;20159;-75
2022/07/19 10:23:53;;;;;;;4.60;2.20;;;30.40;39.80;;;;;;4991830;28;20573;-75
2022/07/19 10:26:55;;;;;;;10.85;2.60;;;30.50;41.10;;;;;;4991361;28;20199;-75
2022/07/19 10:29:23;;;;;;;2.72;2.30;;;30.60;40.30;;;;;;4955048;28;20188;-75
2022/07/19 10:32:27;;;;;;;5.90;2.17;;;30.70;39.40;;;;;;4988678;28;20196;-75
2022/07/19 10:35:24;;;;;;;3.10;2.28;;;30.70;38.10;;;;;;4971113;28;20218;-75
2022/07/19 10:37:51;;;;;;;2.42;2.22;;;30.70;37.80;;;;;;4991880;28;20231;-75
2022/07/19 10:40:56;;;;;;;2.70;2.25;;;30.80;38.90;;;;;;4992267;28;20256;-75
2022/07/19 10:43:23;;;;;;;6.72;2.20;;;30.70;39.00;;;;;;4971087;28;20203;-75
2022/07/19 10:46:01;;;;;;;8.00;2.60;;;30.80;37.40;;;;;;4954543;28;20222;-75
2022/07/19 10:48:40;;;;;;;3.92;2.15;;;30.80;36.40;;;;;;4982781;28;20187;-75
2022/07/19 10:51:09;;;;;;;3.83;2.35;;;30.80;38.70;;;;;;4990988;28;20168;-75
2022/07/19 10:53:41;;;;;;;4.50;2.28;;;30.90;37.80;;;;;;4990956;28;20187;-75
2022/07/19 10:56:27;;;;;;;7.40;2.22;;;31.10;38.20;;;;;;4990976;28;20212;-75
2022/07/19 10:59:05;;;;;;;2.55;2.17;;;31.20;38.30;;;;;;4991656;28;20260;-75
2022/07/19 11:01:33;;;;;;;4.10;2.00;;;31.30;37.70;;;;;;4990746;28;20229;-75
2022/07/19 11:04:28;;;;;;;5.65;2.20;;;31.30;36.30;;;;;;4990707;28;20207;-75
2022/07/19 11:07:13;;;;;;;4.38;2.10;;;31.30;36.20;;;;;;4990694;28;20225;-75
2022/07/19 11:09:41;;;;;;;2.53;1.98;;;31.30;36.90;;;;;;4992114;28;20205;-75
2022/07/19 11:12:39;;;;;;;5.00;2.38;;;31.30;36.80;;;;;;4991794;28;20176;-75
2022/07/19 11:15:08;;;;;;;3.92;2.50;;;31.40;36.60;;;;;;4980224;28;20290;-75
2022/07/19 11:17:34;;;;;;;3.65;2.25;;;31.30;34.90;;;;;;4990706;28;20191;-75
2022/07/19 11:20:06;;;;;;;3.10;2.20;;;31.30;35.00;;;;;;4992244;28;20246;-75
2022/07/19 11:22:42;;;;;;;8.85;2.30;;;31.30;36.90;;;;;;4991636;28;20160;-75
2022/07/19 11:25:09;;;;;;;3.33;2.15;;;31.40;35.70;;;;;;4990712;28;20256;-75
2022/07/19 11:27:36;;;;;;;5.57;2.15;;;31.50;35.70;;;;;;4990367;28;20187;-75
2022/07/19 11:30:05;;;;;;;3.35;2.28;;;31.60;36.40;;;;;;4991464;28;20292;-75
2022/07/19 11:32:31;;;;;;;5.30;2.22;;;31.60;34.60;;;;;;4990753;28;20259;-75
2022/07/19 11:35:03;;;;;;;3.90;2.20;;;31.70;35.70;;;;;;4991650;28;20271;-75
2022/07/19 11:37:31;;;;;;;4.75;2.47;;;31.70;36.80;;;;;;4990373;28;20244;-75
2022/07/19 11:39:57;;;;;;;4.15;2.20;;;31.90;34.60;;;;;;4991546;28;20180;-75
2022/07/19 11:42:44;;;;;;;3.58;3.00;;;31.90;34.30;;;;;;4990939;28;20259;-75
2022/07/19 11:45:18;;;;;;;5.38;2.80;;;31.90;34.10;;;;;;4991450;28;20199;-75
2022/07/19 11:47:45;;;;;;;100.50;33.25;;;31.90;34.20;;;;;;4990053;28;20175;-75
2022/07/19 11:50:13;;;;;;;7.70;4.82;;;31.90;33.90;;;;;;4991392;28;20167;-75
2022/07/19 11:52:58;;;;;;;5.63;2.63;;;31.90;32.70;;;;;;4991297;28;20175;-75
2022/07/19 11:55:26;;;;;;;7.50;5.18;;;31.90;32.60;;;;;;4991039;28;20194;-75
2022/07/19 11:57:54;;;;;;;8.70;4.18;;;32.00;35.10;;;;;;4989975;28;20229;-75
2022/07/19 12:00:20;;;;;;;8.73;5.18;;;32.10;34.10;;;;;;4990321;28;20259;-75
2022/07/19 12:06:08;;;;;;;5.47;3.10;;;32.30;34.10;;;;;;4991359;28;20272;-75
2022/07/19 12:08:37;;;;;;;5.22;2.33;;;32.30;32.20;;;;;;4989985;28;20260;-75
2022/07/19 12:11:23;;;;;;;6.57;2.60;;;32.20;32.90;;;;;;4989827;28;20215;-75
2022/07/19 12:14:26;;;;;;;6.65;3.28;;;32.30;33.50;;;;;;4991302;28;20708;-75
2022/07/19 12:17:11;;;;;;;6.32;3.08;;;32.30;34.10;;;;;;4990644;28;20324;-75
2022/07/19 12:19:38;;;;;;;5.10;3.00;;;32.40;32.80;;;;;;4990548;28;20203;-73
2022/07/19 12:22:03;;;;;;;8.00;2.88;;;32.40;33.20;;;;;;4990779;28;20246;-73
2022/07/19 12:24:30;;;;;;;4.50;2.40;;;32.40;32.50;;;;;;4990670;28;20207;-75
2022/07/19 12:27:08;;;;;;;5.13;2.85;;;32.40;32.80;;;;;;4989585;28;20232;-75
2022/07/19 12:29:45;;;;;;;4.53;2.60;;;32.50;32.40;;;;;;4990792;28;20259;-75
2022/07/19 12:32:13;;;;;;;4.13;2.20;;;32.40;31.70;;;;;;4989624;28;20168;-75
2022/07/19 12:34:48;;;;;;;6.00;2.85;;;32.40;31.00;;;;;;4989764;28;20172;-75
2022/07/19 12:37:27;;;;;;;3.63;2.58;;;32.40;32.40;;;;;;4989967;28;20186;-75
2022/07/19 12:40:10;;;;;;;5.43;2.58;;;32.40;31.30;;;;;;4989480;28;20199;-75
2022/07/19 12:42:48;;;;;;;5.22;2.90;;;32.40;31.80;;;;;;4989832;28;20183;-75
2022/07/19 12:45:41;;;;;;;4.70;2.63;;;32.60;32.40;;;;;;4990576;28;20245;-76
2022/07/19 12:48:08;;;;;;;4.20;2.30;;;32.60;32.20;;;;;;4990271;28;20233;-76
2022/07/19 12:50:48;;;;;;;6.18;2.50;;;32.40;31.90;;;;;;4990538;28;20229;-76
2022/07/19 12:53:16;;;;;;;6.45;2.60;;;32.30;30.00;;;;;;4990624;28;20156;-76
2022/07/19 12:55:45;;;;;;;6.35;2.60;;;32.40;32.20;;;;;;4990487;28;20240;-76
2022/07/19 12:58:12;;;;;;;4.18;2.35;;;32.40;31.50;;;;;;4990204;28;20693;-76
2022/07/19 13:00:39;;;;;;;5.72;2.05;;;32.40;31.20;;;;;;4992574;28;20255;-76